sensor_id;sensor_type;location;lat;lon;timestamp;temperature;humidity
49052;DHT22;34866;48.670;18.260;2023-03-14T00:01:53;230.70;6502.40
49052;DHT22;34866;48.670;18.260;2023-03-14T00:04:18;230.70;6502.40
49052;DHT22;34866;48.670;18.260;2023-03-14T00:06:44;230.70;6502.40
49052;DHT22;34866;48.670;18.260;2023-03-14T00:09:13;230.70;6502.40
49052;DHT22;34866;48.670;18.260;2023-03-14T00:11:38;230.60;6502.40
49052;DHT22;34866;48.670;18.260;2023-03-14T00:14:05;230.60;6502.40
49052;DHT22;34866;48.670;18.260;2023-03-14T00:16:31;230.50;6502.40
49052;DHT22;34866;48.670;18.260;2023-03-14T00:18:59;230.60;6502.40
49052;DHT22;34866;48.670;18.260;2023-03-14T00:21:25;230.60;6502.40
49052;DHT22;34866;48.670;18.260;2023-03-14T00:23:51;230.60;6502.40
49052;DHT22;34866;48.670;18.260;2023-03-14T00:26:19;230.50;6502.40
49052;DHT22;34866;48.670;18.260;2023-03-14T00:28:46;230.50;6502.40
49052;DHT22;34866;48.670;18.260;2023-03-14T00:31:15;230.40;6502.40
49052;DHT22;34866;48.670;18.260;2023-03-14T00:33:41;230.40;6502.40
49052;DHT22;34866;48.670;18.260;2023-03-14T00:36:09;205.60;6502.40
49052;DHT22;34866;48.670;18.260;2023-03-14T00:38:36;205.60;6502.40
49052;DHT22;34866;48.670;18.260;2023-03-14T00:41:14;205.70;6502.40
49052;DHT22;34866;48.670;18.260;2023-03-14T00:43:41;205.50;6502.40
49052;DHT22;34866;48.670;18.260;2023-03-14T00:46:07;205.40;6502.40
49052;DHT22;34866;48.670;18.260;2023-03-14T00:48:34;205.40;6502.40
49052;DHT22;34866;48.670;18.260;2023-03-14T00:51:01;205.40;6502.40
49052;DHT22;34866;48.670;18.260;2023-03-14T00:53:27;205.40;6502.40
49052;DHT22;34866;48.670;18.260;2023-03-14T00:55:53;205.40;6502.40
49052;DHT22;34866;48.670;18.260;2023-03-14T00:58:19;205.40;6502.40
49052;DHT22;34866;48.670;18.260;2023-03-14T01:00:45;205.50;6502.40
49052;DHT22;34866;48.670;18.260;2023-03-14T01:03:14;205.70;6502.40
49052;DHT22;34866;48.670;18.260;2023-03-14T01:05:41;205.50;6502.40
49052;DHT22;34866;48.670;18.260;2023-03-14T01:08:07;205.40;6502.40
49052;DHT22;34866;48.670;18.260;2023-03-14T01:10:37;205.40;6502.40
49052;DHT22;34866;48.670;18.260;2023-03-14T01:13:02;205.40;6502.40
49052;DHT22;34866;48.670;18.260;2023-03-14T01:15:28;205.40;6502.40
49052;DHT22;34866;48.670;18.260;2023-03-14T01:17:54;205.40;6502.40
49052;DHT22;34866;48.670;18.260;2023-03-14T01:20:21;205.50;6502.40
49052;DHT22;34866;48.670;18.260;2023-03-14T01:22:48;205.40;6502.40
49052;DHT22;34866;48.670;18.260;2023-03-14T01:25:16;205.60;6502.40
49052;DHT22;34866;48.670;18.260;2023-03-14T01:27:42;205.70;6502.40
49052;DHT22;34866;48.670;18.260;2023-03-14T01:30:09;230.40;6502.40
49052;DHT22;34866;48.670;18.260;2023-03-14T01:32:35;205.70;6502.40
49052;DHT22;34866;48.670;18.260;2023-03-14T01:35:01;230.40;6502.40
49052;DHT22;34866;48.670;18.260;2023-03-14T01:37:27;205.50;6502.40
49052;DHT22;34866;48.670;18.260;2023-03-14T01:39:52;205.50;6502.40
49052;DHT22;34866;48.670;18.260;2023-03-14T01:42:18;205.40;6502.40
49052;DHT22;34866;48.670;18.260;2023-03-14T01:45:02;205.50;6502.40
49052;DHT22;34866;48.670;18.260;2023-03-14T01:47:28;205.50;6502.40
49052;DHT22;34866;48.670;18.260;2023-03-14T01:50:08;205.40;6502.40
49052;DHT22;34866;48.670;18.260;2023-03-14T01:52:39;205.40;6502.40
49052;DHT22;34866;48.670;18.260;2023-03-14T01:55:17;205.30;6502.40
49052;DHT22;34866;48.670;18.260;2023-03-14T01:57:47;205.20;6502.40
49052;DHT22;34866;48.670;18.260;2023-03-14T02:00:17;205.20;6502.40
49052;DHT22;34866;48.670;18.260;2023-03-14T02:02:49;205.20;6502.40
49052;DHT22;34866;48.670;18.260;2023-03-14T02:05:19;205.20;6502.40
49052;DHT22;34866;48.670;18.260;2023-03-14T02:07:50;205.20;6502.40
49052;DHT22;34866;48.670;18.260;2023-03-14T02:10:18;205.10;6502.40
49052;DHT22;34866;48.670;18.260;2023-03-14T02:12:47;205.20;6502.40
49052;DHT22;34866;48.670;18.260;2023-03-14T02:15:13;205.10;6502.40
49052;DHT22;34866;48.670;18.260;2023-03-14T02:17:41;205.00;6502.40
49052;DHT22;34866;48.670;18.260;2023-03-14T02:20:35;205.00;6502.40
49052;DHT22;34866;48.670;18.260;2023-03-14T02:23:04;204.80;6502.40
49052;DHT22;34866;48.670;18.260;2023-03-14T02:25:36;204.80;6502.40
49052;DHT22;34866;48.670;18.260;2023-03-14T02:28:04;204.90;6502.40
49052;DHT22;34866;48.670;18.260;2023-03-14T02:30:31;180.10;6502.40
49052;DHT22;34866;48.670;18.260;2023-03-14T02:33:09;204.80;6502.40
49052;DHT22;34866;48.670;18.260;2023-03-14T02:35:48;205.10;6502.40
49052;DHT22;34866;48.670;18.260;2023-03-14T02:38:24;205.30;6502.40
49052;DHT22;34866;48.670;18.260;2023-03-14T02:40:55;205.50;6502.40
49052;DHT22;34866;48.670;18.260;2023-03-14T02:43:21;205.40;6502.40
49052;DHT22;34866;48.670;18.260;2023-03-14T02:45:50;205.40;6502.40
49052;DHT22;34866;48.670;18.260;2023-03-14T02:48:25;205.50;6502.40
49052;DHT22;34866;48.670;18.260;2023-03-14T02:50:54;205.40;6502.40
49052;DHT22;34866;48.670;18.260;2023-03-14T02:53:27;205.30;6502.40
49052;DHT22;34866;48.670;18.260;2023-03-14T02:55:56;205.30;6502.40
49052;DHT22;34866;48.670;18.260;2023-03-14T02:58:22;205.20;6502.40
49052;DHT22;34866;48.670;18.260;2023-03-14T03:00:48;205.20;6502.40
49052;DHT22;34866;48.670;18.260;2023-03-14T03:03:14;205.10;6502.40
49052;DHT22;34866;48.670;18.260;2023-03-14T03:05:40;205.00;6502.40
49052;DHT22;34866;48.670;18.260;2023-03-14T03:08:06;205.00;6502.40
49052;DHT22;34866;48.670;18.260;2023-03-14T03:10:32;205.00;6502.40
49052;DHT22;34866;48.670;18.260;2023-03-14T03:12:57;205.00;6502.40
49052;DHT22;34866;48.670;18.260;2023-03-14T03:15:24;205.10;6502.40
49052;DHT22;34866;48.670;18.260;2023-03-14T03:17:49;205.10;6502.40
49052;DHT22;34866;48.670;18.260;2023-03-14T03:20:15;205.20;6502.40
49052;DHT22;34866;48.670;18.260;2023-03-14T03:22:41;205.30;6502.40
49052;DHT22;34866;48.670;18.260;2023-03-14T03:25:08;205.20;6502.40
49052;DHT22;34866;48.670;18.260;2023-03-14T03:27:35;205.10;6502.40
49052;DHT22;34866;48.670;18.260;2023-03-14T03:30:02;205.20;6502.40
49052;DHT22;34866;48.670;18.260;2023-03-14T03:32:27;205.20;6502.40
49052;DHT22;34866;48.670;18.260;2023-03-14T03:34:53;205.10;6502.40
49052;DHT22;34866;48.670;18.260;2023-03-14T03:37:19;205.10;6502.40
49052;DHT22;34866;48.670;18.260;2023-03-14T03:39:44;205.30;6502.40
49052;DHT22;34866;48.670;18.260;2023-03-14T03:42:10;205.20;6502.40
49052;DHT22;34866;48.670;18.260;2023-03-14T03:44:37;205.00;6502.40
49052;DHT22;34866;48.670;18.260;2023-03-14T03:47:04;204.90;6502.40
49052;DHT22;34866;48.670;18.260;2023-03-14T03:49:31;204.80;6502.40
49052;DHT22;34866;48.670;18.260;2023-03-14T03:51:57;204.80;6502.40
49052;DHT22;34866;48.670;18.260;2023-03-14T03:54:23;204.90;6502.40
49052;DHT22;34866;48.670;18.260;2023-03-14T03:56:48;204.80;6502.40
49052;DHT22;34866;48.670;18.260;2023-03-14T03:59:14;204.80;6502.40
49052;DHT22;34866;48.670;18.260;2023-03-14T04:01:40;180.10;6502.40
49052;DHT22;34866;48.670;18.260;2023-03-14T04:04:06;204.90;6502.40
49052;DHT22;34866;48.670;18.260;2023-03-14T04:06:32;204.80;6502.40
49052;DHT22;34866;48.670;18.260;2023-03-14T04:08:58;180.10;6502.40
49052;DHT22;34866;48.670;18.260;2023-03-14T04:11:24;180.10;6502.40
49052;DHT22;34866;48.670;18.260;2023-03-14T04:13:49;204.80;6502.40
49052;DHT22;34866;48.670;18.260;2023-03-14T04:16:18;205.10;6502.40
49052;DHT22;34866;48.670;18.260;2023-03-14T04:18:44;204.80;6502.40
49052;DHT22;34866;48.670;18.260;2023-03-14T04:21:10;180.10;6502.40
49052;DHT22;34866;48.670;18.260;2023-03-14T04:23:37;180.00;6502.40
49052;DHT22;34866;48.670;18.260;2023-03-14T04:26:03;179.90;6502.40
49052;DHT22;34866;48.670;18.260;2023-03-14T04:28:29;179.60;6502.40
49052;DHT22;34866;48.670;18.260;2023-03-14T04:30:55;179.80;6502.40
49052;DHT22;34866;48.670;18.260;2023-03-14T04:33:20;179.70;6502.40
49052;DHT22;34866;48.670;18.260;2023-03-14T04:35:47;179.60;6502.40
49052;DHT22;34866;48.670;18.260;2023-03-14T04:38:13;179.50;6502.40
49052;DHT22;34866;48.670;18.260;2023-03-14T04:40:42;179.50;230.40
49052;DHT22;34866;48.670;18.260;2023-03-14T04:43:10;179.50;332.80
49052;DHT22;34866;48.670;18.260;2023-03-14T04:45:37;179.60;6502.40
49052;DHT22;34866;48.670;18.260;2023-03-14T04:48:02;179.90;128.00
49052;DHT22;34866;48.670;18.260;2023-03-14T04:50:29;180.10;6502.40
49052;DHT22;34866;48.670;18.260;2023-03-14T04:52:55;204.90;6502.40
49052;DHT22;34866;48.670;18.260;2023-03-14T04:55:21;205.00;6502.40
49052;DHT22;34866;48.670;18.260;2023-03-14T04:57:46;204.90;6502.40
49052;DHT22;34866;48.670;18.260;2023-03-14T05:00:12;179.90;256.00
49052;DHT22;34866;48.670;18.260;2023-03-14T05:02:38;179.60;512.00
49052;DHT22;34866;48.670;18.260;2023-03-14T05:05:04;179.70;332.80
49052;DHT22;34866;48.670;18.260;2023-03-14T05:07:31;179.90;128.00
49052;DHT22;34866;48.670;18.260;2023-03-14T05:09:56;180.00;6502.40
49052;DHT22;34866;48.670;18.260;2023-03-14T05:12:22;180.10;6502.40
49052;DHT22;34866;48.670;18.260;2023-03-14T05:14:49;205.00;6502.40
49052;DHT22;34866;48.670;18.260;2023-03-14T05:17:16;204.90;6502.40
49052;DHT22;34866;48.670;18.260;2023-03-14T05:19:42;204.80;6502.40
49052;DHT22;34866;48.670;18.260;2023-03-14T05:22:07;180.10;6502.40
49052;DHT22;34866;48.670;18.260;2023-03-14T05:24:34;179.90;281.60
49052;DHT22;34866;48.670;18.260;2023-03-14T05:27:00;179.90;6502.40
49052;DHT22;34866;48.670;18.260;2023-03-14T05:29:26;179.80;537.60
49052;DHT22;34866;48.670;18.260;2023-03-14T05:31:51;180.10;6502.40
49052;DHT22;34866;48.670;18.260;2023-03-14T05:34:17;180.00;6502.40
49052;DHT22;34866;48.670;18.260;2023-03-14T05:36:42;180.10;6502.40
49052;DHT22;34866;48.670;18.260;2023-03-14T05:39:08;180.00;6502.40
49052;DHT22;34866;48.670;18.260;2023-03-14T05:41:34;180.00;6502.40
49052;DHT22;34866;48.670;18.260;2023-03-14T05:43:59;180.10;6502.40
49052;DHT22;34866;48.670;18.260;2023-03-14T05:46:30;180.10;6502.40
49052;DHT22;34866;48.670;18.260;2023-03-14T05:48:57;204.80;6502.40
49052;DHT22;34866;48.670;18.260;2023-03-14T05:51:23;180.00;6502.40
49052;DHT22;34866;48.670;18.260;2023-03-14T05:53:49;180.10;6502.40
49052;DHT22;34866;48.670;18.260;2023-03-14T05:56:15;180.00;307.20
49052;DHT22;34866;48.670;18.260;2023-03-14T05:58:40;179.90;6502.40
49052;DHT22;34866;48.670;18.260;2023-03-14T06:01:06;179.90;6502.40
49052;DHT22;34866;48.670;18.260;2023-03-14T06:03:33;179.90;6502.40
49052;DHT22;34866;48.670;18.260;2023-03-14T06:05:59;180.00;6502.40
49052;DHT22;34866;48.670;18.260;2023-03-14T06:08:26;204.90;6502.40
49052;DHT22;34866;48.670;18.260;2023-03-14T06:10:52;205.30;6502.40
49052;DHT22;34866;48.670;18.260;2023-03-14T06:13:18;205.60;6502.40
49052;DHT22;34866;48.670;18.260;2023-03-14T06:15:44;230.40;6502.40
49052;DHT22;34866;48.670;18.260;2023-03-14T06:18:10;230.60;384.00
49052;DHT22;34866;48.670;18.260;2023-03-14T06:20:43;230.70;230.40
49052;DHT22;34866;48.670;18.260;2023-03-14T06:23:09;230.70;6528.00
49052;DHT22;34866;48.670;18.260;2023-03-14T06:25:41;230.70;6502.40
49052;DHT22;34866;48.670;18.260;2023-03-14T06:28:07;230.70;128.00
49052;DHT22;34866;48.670;18.260;2023-03-14T06:30:32;230.80;6502.40
49052;DHT22;34866;48.670;18.260;2023-03-14T06:32:58;230.90;6502.40
49052;DHT22;34866;48.670;18.260;2023-03-14T06:35:24;231.00;6502.40
49052;DHT22;34866;48.670;18.260;2023-03-14T06:37:50;231.10;6502.40
49052;DHT22;34866;48.670;18.260;2023-03-14T06:40:16;231.20;6502.40
49052;DHT22;34866;48.670;18.260;2023-03-14T06:42:47;231.20;6502.40
49052;DHT22;34866;48.670;18.260;2023-03-14T06:45:12;231.20;6502.40
49052;DHT22;34866;48.670;18.260;2023-03-14T06:47:39;256.00;6502.40
49052;DHT22;34866;48.670;18.260;2023-03-14T06:50:06;231.30;6502.40
49052;DHT22;34866;48.670;18.260;2023-03-14T06:52:31;230.70;6502.40
49052;DHT22;34866;48.670;18.260;2023-03-14T06:54:57;231.30;6502.40
49052;DHT22;34866;48.670;18.260;2023-03-14T06:57:23;256.00;6502.40
49052;DHT22;34866;48.670;18.260;2023-03-14T06:59:48;256.00;6502.40
49052;DHT22;34866;48.670;18.260;2023-03-14T07:02:14;256.00;179.20
49052;DHT22;34866;48.670;18.260;2023-03-14T07:04:40;256.20;6502.40
49052;DHT22;34866;48.670;18.260;2023-03-14T07:07:06;256.20;6502.40
49052;DHT22;34866;48.670;18.260;2023-03-14T07:09:33;256.10;6502.40
49052;DHT22;34866;48.670;18.260;2023-03-14T07:11:58;256.20;6502.40
49052;DHT22;34866;48.670;18.260;2023-03-14T07:14:24;256.40;6502.40
49052;DHT22;34866;48.670;18.260;2023-03-14T07:16:50;256.40;6502.40
49052;DHT22;34866;48.670;18.260;2023-03-14T07:19:16;256.40;6502.40
49052;DHT22;34866;48.670;18.260;2023-03-14T07:21:41;256.40;6502.40
49052;DHT22;34866;48.670;18.260;2023-03-14T07:24:07;256.40;6502.40
49052;DHT22;34866;48.670;18.260;2023-03-14T07:26:33;256.50;6502.40
49052;DHT22;34866;48.670;18.260;2023-03-14T07:28:59;256.60;6502.40
49052;DHT22;34866;48.670;18.260;2023-03-14T07:31:25;256.70;6502.40
49052;DHT22;34866;48.670;18.260;2023-03-14T07:33:52;256.70;6502.40
49052;DHT22;34866;48.670;18.260;2023-03-14T07:36:18;256.80;6502.40
49052;DHT22;34866;48.670;18.260;2023-03-14T07:38:43;281.70;6528.00
49052;DHT22;34866;48.670;18.260;2023-03-14T07:41:09;281.80;6528.00
49052;DHT22;34866;48.670;18.260;2023-03-14T07:43:35;282.00;6528.00
49052;DHT22;34866;48.670;18.260;2023-03-14T07:46:02;307.30;128.00
49052;DHT22;34866;48.670;18.260;2023-03-14T07:48:27;307.60;128.00
49052;DHT22;34866;48.670;18.260;2023-03-14T07:50:54;282.40;6528.00
49052;DHT22;34866;48.670;18.260;2023-03-14T07:53:21;282.20;6528.00
49052;DHT22;34866;48.670;18.260;2023-03-14T07:55:47;282.30;6528.00
49052;DHT22;34866;48.670;18.260;2023-03-14T07:58:13;282.50;6528.00
49052;DHT22;34866;48.670;18.260;2023-03-14T08:00:39;307.80;128.00
49052;DHT22;34866;48.670;18.260;2023-03-14T08:03:05;332.90;128.00
49052;DHT22;34866;48.670;18.260;2023-03-14T08:05:34;333.00;128.00
49052;DHT22;34866;48.670;18.260;2023-03-14T08:08:00;333.10;128.00
49052;DHT22;34866;48.670;18.260;2023-03-14T08:10:26;332.90;128.00
49052;DHT22;34866;48.670;18.260;2023-03-14T08:12:54;308.10;128.00
49052;DHT22;34866;48.670;18.260;2023-03-14T08:15:22;308.10;128.00
49052;DHT22;34866;48.670;18.260;2023-03-14T08:17:48;308.10;128.00
49052;DHT22;34866;48.670;18.260;2023-03-14T08:20:18;307.90;128.00
49052;DHT22;34866;48.670;18.260;2023-03-14T08:22:44;308.10;128.00
49052;DHT22;34866;48.670;18.260;2023-03-14T08:25:10;333.10;128.00
49052;DHT22;34866;48.670;18.260;2023-03-14T08:27:36;333.50;128.00
49052;DHT22;34866;48.670;18.260;2023-03-14T08:30:13;333.10;128.00
49052;DHT22;34866;48.670;18.260;2023-03-14T08:32:40;333.30;128.00
49052;DHT22;34866;48.670;18.260;2023-03-14T08:35:07;333.50;128.00
49052;DHT22;34866;48.670;18.260;2023-03-14T08:37:33;333.70;128.00
49052;DHT22;34866;48.670;18.260;2023-03-14T08:39:59;333.70;128.00
49052;DHT22;34866;48.670;18.260;2023-03-14T08:42:24;333.40;128.00
49052;DHT22;34866;48.670;18.260;2023-03-14T08:44:52;333.50;128.00
49052;DHT22;34866;48.670;18.260;2023-03-14T08:47:18;333.60;128.00
49052;DHT22;34866;48.670;18.260;2023-03-14T08:49:44;333.70;128.00
49052;DHT22;34866;48.670;18.260;2023-03-14T08:52:10;333.70;128.00
49052;DHT22;34866;48.670;18.260;2023-03-14T08:54:37;333.60;128.00
49052;DHT22;34866;48.670;18.260;2023-03-14T08:57:02;358.40;128.00
49052;DHT22;34866;48.670;18.260;2023-03-14T08:59:28;358.60;128.00
49052;DHT22;34866;48.670;18.260;2023-03-14T09:01:54;358.80;128.00
49052;DHT22;34866;48.670;18.260;2023-03-14T09:04:20;359.10;128.00
49052;DHT22;34866;48.670;18.260;2023-03-14T09:06:46;359.30;128.00
49052;DHT22;34866;48.670;18.260;2023-03-14T09:09:12;384.10;128.00
49052;DHT22;34866;48.670;18.260;2023-03-14T09:11:39;359.30;128.00
49052;DHT22;34866;48.670;18.260;2023-03-14T09:14:05;359.00;128.00
49052;DHT22;34866;48.670;18.260;2023-03-14T09:16:31;359.10;128.00
49052;DHT22;34866;48.670;18.260;2023-03-14T09:18:56;359.00;128.00
49052;DHT22;34866;48.670;18.260;2023-03-14T09:21:26;358.80;128.00
49052;DHT22;34866;48.670;18.260;2023-03-14T09:23:52;358.90;128.00
49052;DHT22;34866;48.670;18.260;2023-03-14T09:26:18;358.80;128.00
49052;DHT22;34866;48.670;18.260;2023-03-14T09:28:44;358.50;128.00
49052;DHT22;34866;48.670;18.260;2023-03-14T09:31:11;358.90;128.00
49052;DHT22;34866;48.670;18.260;2023-03-14T09:33:39;358.90;128.00
49052;DHT22;34866;48.670;18.260;2023-03-14T09:36:05;358.80;128.00
49052;DHT22;34866;48.670;18.260;2023-03-14T09:38:32;358.60;128.00
49052;DHT22;34866;48.670;18.260;2023-03-14T09:41:01;358.60;128.00
49052;DHT22;34866;48.670;18.260;2023-03-14T09:43:30;358.60;128.00
49052;DHT22;34866;48.670;18.260;2023-03-14T09:45:57;358.60;128.00
49052;DHT22;34866;48.670;18.260;2023-03-14T09:48:30;359.10;128.00
49052;DHT22;34866;48.670;18.260;2023-03-14T09:51:00;359.10;128.00
49052;DHT22;34866;48.670;18.260;2023-03-14T09:53:38;359.10;128.00
49052;DHT22;34866;48.670;18.260;2023-03-14T09:56:13;359.20;128.00
49052;DHT22;34866;48.670;18.260;2023-03-14T09:58:45;358.80;128.00
49052;DHT22;34866;48.670;18.260;2023-03-14T10:01:15;358.60;128.00
49052;DHT22;34866;48.670;18.260;2023-03-14T10:03:42;333.70;128.00
49052;DHT22;34866;48.670;18.260;2023-03-14T10:06:12;358.40;128.00
49052;DHT22;34866;48.670;18.260;2023-03-14T10:08:44;333.50;128.00
49052;DHT22;34866;48.670;18.260;2023-03-14T10:11:19;333.70;128.00
49052;DHT22;34866;48.670;18.260;2023-03-14T10:14:11;333.50;128.00
49052;DHT22;34866;48.670;18.260;2023-03-14T10:16:44;333.50;128.00
49052;DHT22;34866;48.670;18.260;2023-03-14T10:19:16;333.70;128.00
49052;DHT22;34866;48.670;18.260;2023-03-14T10:21:53;358.50;128.00
49052;DHT22;34866;48.670;18.260;2023-03-14T10:24:22;358.80;128.00
49052;DHT22;34866;48.670;18.260;2023-03-14T10:29:54;358.60;128.00
49052;DHT22;34866;48.670;18.260;2023-03-14T10:32:21;384.40;128.00
49052;DHT22;34866;48.670;18.260;2023-03-14T10:38:00;333.70;128.00
49052;DHT22;34866;48.670;18.260;2023-03-14T10:40:39;333.70;128.00
49052;DHT22;34866;48.670;18.260;2023-03-14T10:43:11;333.70;128.00
49052;DHT22;34866;48.670;18.260;2023-03-14T10:45:42;333.70;128.00
49052;DHT22;34866;48.670;18.260;2023-03-14T10:48:20;333.70;128.00
49052;DHT22;34866;48.670;18.260;2023-03-14T10:53:26;333.70;128.00
49052;DHT22;34866;48.670;18.260;2023-03-14T10:55:52;333.70;128.00
49052;DHT22;34866;48.670;18.260;2023-03-14T10:58:26;333.70;128.00
49052;DHT22;34866;48.670;18.260;2023-03-14T11:03:40;358.40;128.00
49052;DHT22;34866;48.670;18.260;2023-03-14T11:09:08;358.50;128.00
49052;DHT22;34866;48.670;18.260;2023-03-14T11:11:39;358.40;128.00
49052;DHT22;34866;48.670;18.260;2023-03-14T11:14:39;333.70;128.00
49052;DHT22;34866;48.670;18.260;2023-03-14T11:22:59;333.50;128.00
49052;DHT22;34866;48.670;18.260;2023-03-14T11:28:39;333.60;128.00
49052;DHT22;34866;48.670;18.260;2023-03-14T11:31:16;333.60;128.00
49052;DHT22;34866;48.670;18.260;2023-03-14T11:34:08;333.60;128.00
49052;DHT22;34866;48.670;18.260;2023-03-14T11:36:48;333.60;128.00
49052;DHT22;34866;48.670;18.260;2023-03-14T11:39:19;333.60;128.00
49052;DHT22;34866;48.670;18.260;2023-03-14T11:41:49;333.60;128.00
49052;DHT22;34866;48.670;18.260;2023-03-14T11:44:26;333.60;128.00
49052;DHT22;34866;48.670;18.260;2023-03-14T11:50:18;333.60;128.00
49052;DHT22;34866;48.670;18.260;2023-03-14T11:55:47;333.50;128.00
49052;DHT22;34866;48.670;18.260;2023-03-14T11:58:34;333.40;128.00
49052;DHT22;34866;48.670;18.260;2023-03-14T12:01:08;333.40;128.00
49052;DHT22;34866;48.670;18.260;2023-03-14T12:03:38;333.40;128.00
49052;DHT22;34866;48.670;18.260;2023-03-14T12:06:28;333.30;128.00
49052;DHT22;34866;48.670;18.260;2023-03-14T12:09:02;333.30;128.00
49052;DHT22;34866;48.670;18.260;2023-03-14T12:13:57;333.50;128.00
49052;DHT22;34866;48.670;18.260;2023-03-14T12:18:50;333.50;128.00
49052;DHT22;34866;48.670;18.260;2023-03-14T12:21:17;333.50;128.00
49052;DHT22;34866;48.670;18.260;2023-03-14T12:26:21;333.50;128.00
49052;DHT22;34866;48.670;18.260;2023-03-14T12:29:14;333.50;128.00
49052;DHT22;34866;48.670;18.260;2023-03-14T12:45:33;333.50;128.00
49052;DHT22;34866;48.670;18.260;2023-03-14T12:48:18;333.50;128.00
49052;DHT22;34866;48.670;18.260;2023-03-14T12:51:01;333.40;128.00
49052;DHT22;34866;48.670;18.260;2023-03-14T12:59:28;333.20;128.00
49052;DHT22;34866;48.670;18.260;2023-03-14T13:04:45;333.10;128.00
49052;DHT22;34866;48.670;18.260;2023-03-14T13:07:35;333.10;204.80
49052;DHT22;34866;48.670;18.260;2023-03-14T13:15:13;307.90;128.00
49052;DHT22;34866;48.670;18.260;2023-03-14T13:17:40;307.70;128.00
49052;DHT22;34866;48.670;18.260;2023-03-14T13:20:17;307.30;128.00
49052;DHT22;34866;48.670;18.260;2023-03-14T13:22:49;282.40;6528.00
49052;DHT22;34866;48.670;18.260;2023-03-14T13:25:15;282.20;588.80
49052;DHT22;34866;48.670;18.260;2023-03-14T13:27:42;282.00;1408.00
49052;DHT22;34866;48.670;18.260;2023-03-14T13:30:18;282.00;2227.20
49052;DHT22;34866;48.670;18.260;2023-03-14T13:32:47;281.80;2278.40
49052;DHT22;34866;48.670;18.260;2023-03-14T13:35:41;281.70;2278.40
49052;DHT22;34866;48.670;18.260;2023-03-14T13:38:25;281.60;2278.40
49052;DHT22;34866;48.670;18.260;2023-03-14T13:40:54;256.90;2252.80
49052;DHT22;34866;48.670;18.260;2023-03-14T13:43:28;256.80;2252.80
49052;DHT22;34866;48.670;18.260;2023-03-14T13:48:29;256.90;2252.80
49052;DHT22;34866;48.670;18.260;2023-03-14T13:50:59;256.80;2252.80
49052;DHT22;34866;48.670;18.260;2023-03-14T13:53:29;256.70;2252.80
49052;DHT22;34866;48.670;18.260;2023-03-14T13:55:55;256.80;2252.80
49052;DHT22;34866;48.670;18.260;2023-03-14T13:58:26;256.70;2252.80
49052;DHT22;34866;48.670;18.260;2023-03-14T14:01:04;256.70;2252.80
49052;DHT22;34866;48.670;18.260;2023-03-14T14:03:33;256.70;2252.80
49052;DHT22;34866;48.670;18.260;2023-03-14T14:05:59;256.70;2252.80
49052;DHT22;34866;48.670;18.260;2023-03-14T14:08:26;256.80;2252.80
49052;DHT22;34866;48.670;18.260;2023-03-14T14:10:55;256.60;2252.80
49052;DHT22;34866;48.670;18.260;2023-03-14T14:13:23;256.50;2252.80
49052;DHT22;34866;48.670;18.260;2023-03-14T14:15:52;256.50;2252.80
49052;DHT22;34866;48.670;18.260;2023-03-14T14:18:19;256.60;2252.80
49052;DHT22;34866;48.670;18.260;2023-03-14T14:20:47;256.40;2252.80
49052;DHT22;34866;48.670;18.260;2023-03-14T14:23:20;256.50;2252.80
49052;DHT22;34866;48.670;18.260;2023-03-14T14:25:51;256.30;2252.80
49052;DHT22;34866;48.670;18.260;2023-03-14T14:28:34;256.30;2252.80
49052;DHT22;34866;48.670;18.260;2023-03-14T14:33:27;256.30;2252.80
49052;DHT22;34866;48.670;18.260;2023-03-14T14:39:11;256.40;2252.80
49052;DHT22;34866;48.670;18.260;2023-03-14T14:41:40;256.30;2252.80
49052;DHT22;34866;48.670;18.260;2023-03-14T14:44:07;256.30;2252.80
49052;DHT22;34866;48.670;18.260;2023-03-14T14:46:35;256.30;2252.80
49052;DHT22;34866;48.670;18.260;2023-03-14T14:49:13;256.30;2252.80
49052;DHT22;34866;48.670;18.260;2023-03-14T14:51:50;256.30;2252.80
49052;DHT22;34866;48.670;18.260;2023-03-14T14:54:18;256.30;2252.80
49052;DHT22;34866;48.670;18.260;2023-03-14T14:56:52;256.30;2252.80
49052;DHT22;34866;48.670;18.260;2023-03-14T14:59:26;230.40;2252.80
49052;DHT22;34866;48.670;18.260;2023-03-14T15:02:04;256.30;2252.80
49052;DHT22;34866;48.670;18.260;2023-03-14T15:04:31;256.30;2252.80
49052;DHT22;34866;48.670;18.260;2023-03-14T15:06:57;256.30;2252.80
49052;DHT22;34866;48.670;18.260;2023-03-14T15:09:23;256.10;2252.80
49052;DHT22;34866;48.670;18.260;2023-03-14T15:11:50;256.00;2252.80
49052;DHT22;34866;48.670;18.260;2023-03-14T15:14:22;256.00;2252.80
49052;DHT22;34866;48.670;18.260;2023-03-14T15:16:49;256.00;2252.80
49052;DHT22;34866;48.670;18.260;2023-03-14T15:19:25;256.00;2252.80
49052;DHT22;34866;48.670;18.260;2023-03-14T15:21:53;231.30;2252.80
49052;DHT22;34866;48.670;18.260;2023-03-14T15:24:18;231.20;2252.80
49052;DHT22;34866;48.670;18.260;2023-03-14T15:26:44;231.10;2252.80
49052;DHT22;34866;48.670;18.260;2023-03-14T15:29:11;231.20;2252.80
49052;DHT22;34866;48.670;18.260;2023-03-14T15:31:38;230.90;2252.80
49052;DHT22;34866;48.670;18.260;2023-03-14T15:34:04;231.20;2252.80
49052;DHT22;34866;48.670;18.260;2023-03-14T15:36:32;231.30;2252.80
49052;DHT22;34866;48.670;18.260;2023-03-14T15:38:59;231.10;2252.80
49052;DHT22;34866;48.670;18.260;2023-03-14T15:41:26;231.10;2252.80
49052;DHT22;34866;48.670;18.260;2023-03-14T15:43:54;231.30;2252.80
49052;DHT22;34866;48.670;18.260;2023-03-14T15:46:20;231.20;1868.80
49052;DHT22;34866;48.670;18.260;2023-03-14T15:48:49;231.10;1971.20
49052;DHT22;34866;48.670;18.260;2023-03-14T15:51:16;231.00;2124.80
49052;DHT22;34866;48.670;18.260;2023-03-14T15:53:42;231.00;2252.80
49052;DHT22;34866;48.670;18.260;2023-03-14T15:56:16;231.00;2252.80
49052;DHT22;34866;48.670;18.260;2023-03-14T15:58:42;230.90;2252.80
49052;DHT22;34866;48.670;18.260;2023-03-14T16:01:13;230.90;2252.80